Time;durP1;ratioP1;P1;durP2;ratioP2;P2;SDS_P1;SDS_P2;PMS_P1;PMS_P2;Temp;Humidity;BMP_temperature;BMP_pressure;BME280_temperature;BME280_humidity;BME280_pressure;Samples;Min_cycle;Max_cycle;Signal;HPM_P1;HPM_P2
2021/04/24 00:00:09;;;;;;;23.92;16.55;;;;;;;7.69;66.47;101048.00;1733924;81;21254;-52
2021/04/24 00:02:42;;;;;;;18.40;14.68;;;;;;;7.74;66.29;101044.10;1760038;81;21277;-64
2021/04/24 00:05:22;;;;;;;22.45;16.12;;;;;;;7.74;66.32;101050.20;1750198;81;21356;-53
2021/04/24 00:07:55;;;;;;;18.32;15.05;;;;;;;7.78;66.19;101054.17;1719753;82;21156;-64
2021/04/24 00:10:23;;;;;;;23.25;16.23;;;;;;;7.77;66.13;101056.34;1730918;81;21177;-54
2021/04/24 00:12:50;;;;;;;20.00;14.75;;;;;;;7.74;66.14;101053.27;1746485;81;21346;-64
2021/04/24 00:15:18;;;;;;;21.65;16.77;;;;;;;7.70;66.16;101058.03;1729750;81;21162;-53
2021/04/24 00:17:46;;;;;;;21.75;16.73;;;;;;;7.70;66.12;101058.03;1749214;81;21172;-64
2021/04/24 00:20:17;;;;;;;22.20;15.45;;;;;;;7.70;66.10;101058.03;1747300;81;21162;-52
2021/04/24 00:22:45;;;;;;;20.25;15.43;;;;;;;7.66;66.16;101060.17;1699343;82;21177;-64
2021/04/24 00:25:14;;;;;;;20.12;15.40;;;;;;;7.63;66.17;101058.41;1699411;84;21237;-64
2021/04/24 00:27:42;;;;;;;19.37;15.03;;;;;;;7.59;66.34;101064.48;1729414;82;21141;-63
2021/04/24 00:30:11;;;;;;;18.70;15.48;;;;;;;7.57;66.33;101064.89;1761186;81;21154;-52
2021/04/24 00:32:39;;;;;;;19.87;14.43;;;;;;;7.55;66.31;101064.86;1710150;82;21126;-63
2021/04/24 00:35:09;;;;;;;20.02;15.85;;;;;;;7.57;66.26;101067.06;1720583;81;21181;-52
2021/04/24 00:37:37;;;;;;;23.60;17.10;;;;;;;7.55;66.20;101066.61;1734221;81;21130;-52
2021/04/24 00:40:06;;;;;;;26.42;17.23;;;;;;;7.54;66.20;101068.78;1708059;83;21185;-53
2021/04/24 00:42:35;;;;;;;20.32;16.80;;;;;;;7.52;66.20;101072.68;1721572;82;21145;-53
2021/04/24 00:45:05;;;;;;;21.57;15.93;;;;;;;7.46;66.35;101074.36;1712111;82;21180;-63
2021/04/24 00:47:32;;;;;;;22.70;17.23;;;;;;;7.39;66.42;101077.34;1727461;82;21235;-64
2021/04/24 00:50:00;;;;;;;19.90;15.03;;;;;;;7.42;66.18;101077.39;1725001;82;21142;-52
2021/04/24 00:52:30;;;;;;;20.27;15.13;;;;;;;7.37;66.21;101077.31;1724072;82;21147;-54
2021/04/24 00:54:57;;;;;;;25.23;16.82;;;;;;;7.36;66.21;101078.17;1719213;82;21154;-64
2021/04/24 00:57:26;;;;;;;26.50;18.40;;;;;;;7.36;66.04;101076.86;1721400;83;21196;-64
2021/04/24 00:59:54;;;;;;;22.27;15.58;;;;;;;7.29;66.15;101084.19;1718252;83;21163;-64
2021/04/24 01:02:21;;;;;;;23.22;18.82;;;;;;;7.26;66.14;101080.25;1702166;82;21182;-63
2021/04/24 01:04:49;;;;;;;26.00;17.07;;;;;;;7.21;66.16;101082.80;1731392;82;21181;-63
2021/04/24 01:07:17;;;;;;;22.58;17.40;;;;;;;7.19;66.20;101081.03;1720106;83;21166;-53
2021/04/24 01:09:44;;;;;;;24.50;17.92;;;;;;;7.17;66.19;101080.99;1721213;83;21343;-64
2021/04/24 01:12:12;;;;;;;25.00;19.02;;;;;;;7.16;66.18;101084.91;1750378;81;21126;-52
2021/04/24 01:14:40;;;;;;;23.00;16.90;;;;;;;7.14;66.17;101084.46;1742071;81;21186;-64
2021/04/24 01:17:08;;;;;;;21.75;17.15;;;;;;;7.11;66.31;101084.42;1743460;81;21228;-53
2021/04/24 01:19:36;;;;;;;23.65;17.75;;;;;;;7.05;66.53;101087.40;1726777;82;21308;-52
2021/04/24 01:22:09;;;;;;;26.40;17.27;;;;;;;6.97;66.78;101089.47;1741626;81;21127;-63
2021/04/24 01:24:37;;;;;;;27.37;20.05;;;;;;;6.97;66.81;101088.16;1730305;83;21173;-52
2021/04/24 01:27:06;;;;;;;25.05;19.57;;;;;;;6.92;66.91;101095.48;1709398;83;21165;-64
2021/04/24 01:29:39;;;;;;;25.85;19.07;;;;;;;6.83;67.14;101093.63;1704317;83;21724;-63
2021/04/24 01:32:07;;;;;;;32.00;21.57;;;;;;;6.80;67.23;101099.70;1694061;82;21240;-64
2021/04/24 01:34:35;;;;;;;29.25;19.92;;;;;;;6.79;67.34;101102.28;1733854;81;21525;-63
2021/04/24 01:37:03;;;;;;;29.05;20.68;;;;;;;6.82;67.28;101097.99;1734363;81;21143;-52
2021/04/24 01:39:31;;;;;;;33.02;21.87;;;;;;;6.83;67.22;101100.16;1716972;81;21147;-52
2021/04/24 01:41:59;;;;;;;24.35;17.17;;;;;;;6.81;67.17;101104.08;1711741;83;21157;-52
2021/04/24 01:44:27;;;;;;;21.23;16.02;;;;;;;6.81;67.19;101107.11;1725293;82;21242;-52
2021/04/24 01:46:55;;;;;;;23.45;19.75;;;;;;;6.78;67.29;101105.75;1726443;82;21590;-52
2021/04/24 01:49:23;;;;;;;27.00;19.77;;;;;;;6.78;67.20;101107.95;1724185;82;21152;-63
2021/04/24 01:51:50;;;;;;;26.68;20.90;;;;;;;6.78;67.18;101112.30;1706106;83;21644;-63
2021/04/24 01:54:18;;;;;;;26.12;18.70;;;;;;;6.79;67.10;101113.64;1713365;82;21295;-57
2021/04/24 01:56:54;;;;;;;26.93;19.00;;;;;;;6.77;67.08;101115.36;1697553;83;21217;-53
2021/04/24 01:59:25;;;;;;;26.73;19.20;;;;;;;6.78;67.08;101116.22;1708510;82;21161;-62
2021/04/24 02:01:56;;;;;;;26.27;17.23;;;;;;;6.78;67.15;101121.45;1699804;82;21373;-53
2021/04/24 02:04:26;;;;;;;26.23;19.67;;;;;;;6.71;67.35;101124.41;1703563;82;21150;-53
2021/04/24 02:06:54;;;;;;;26.97;20.55;;;;;;;6.79;67.17;101125.83;1709188;82;21205;-63
2021/04/24 02:09:24;;;;;;;28.32;21.50;;;;;;;6.79;67.20;101121.49;1713972;83;21190;-52
2021/04/24 02:12:11;;;;;;;26.25;20.32;;;;;;;6.82;67.22;101127.19;1721450;83;21704;-63
2021/04/24 02:14:45;;;;;;;28.98;20.32;;;;;;;6.85;67.22;101131.16;1689764;84;21185;-52
2021/04/24 02:17:15;;;;;;;28.32;21.00;;;;;;;6.88;67.17;101132.52;1736157;81;21137;-54
2021/04/24 02:19:43;;;;;;;24.95;18.92;;;;;;;7.01;66.83;101124.41;1741808;81;21190;-52
2021/04/24 02:22:12;;;;;;;28.42;21.27;;;;;;;7.02;66.82;101124.86;1730677;82;21166;-52
2021/04/24 02:24:50;;;;;;;26.05;19.98;;;;;;;7.04;66.78;101123.59;1722119;82;21114;-63
2021/04/24 02:27:18;;;;;;;25.72;20.02;;;;;;;6.99;66.77;101120.48;1696205;82;21169;-53
2021/04/24 02:29:46;;;;;;;29.75;20.65;;;;;;;6.96;66.69;101124.36;1674454;83;21167;-53
2021/04/24 02:32:15;;;;;;;25.45;19.25;;;;;;;7.01;66.54;101132.27;1726732;81;21608;-63
2021/04/24 02:34:46;;;;;;;28.95;19.77;;;;;;;7.01;66.45;101130.95;1709303;82;21217;-52
2021/04/24 02:37:15;;;;;;;27.22;20.10;;;;;;;7.06;66.20;101124.50;1750804;81;21371;-52
2021/04/24 02:39:44;;;;;;;24.95;19.60;;;;;;;6.99;66.25;101133.56;1737396;81;21206;-54
2021/04/24 02:42:19;;;;;;;26.27;19.65;;;;;;;6.91;66.46;101136.91;1727914;81;21183;-53
2021/04/24 02:44:48;;;;;;;24.07;17.80;;;;;;;6.89;66.51;101138.61;1726992;81;21299;-63
2021/04/24 02:47:18;;;;;;;24.32;18.05;;;;;;;6.87;66.47;101144.25;1709409;83;21200;-63
2021/04/24 02:49:45;;;;;;;27.30;18.98;;;;;;;6.85;66.41;101149.03;1741372;81;21201;-62
2021/04/24 02:52:13;;;;;;;24.82;19.40;;;;;;;6.86;66.38;101151.23;1735818;81;21584;-63
2021/04/24 02:54:41;;;;;;;23.42;17.87;;;;;;;6.83;66.33;101146.86;1714543;83;21161;-63
2021/04/24 02:57:09;;;;;;;22.67;18.73;;;;;;;6.85;66.27;101146.41;1732316;83;21162;-53
2021/04/24 02:59:37;;;;;;;23.90;18.10;;;;;;;6.87;66.25;101144.25;1739288;81;21632;-52
2021/04/24 03:02:05;;;;;;;22.98;17.82;;;;;;;6.87;66.31;101146.45;1743491;81;21154;-53
2021/04/24 03:04:33;;;;;;;23.70;17.87;;;;;;;6.89;66.25;101145.16;1742124;81;21177;-53
2021/04/24 03:07:00;;;;;;;26.50;19.20;;;;;;;6.88;66.15;101149.94;1690729;83;21163;-53
2021/04/24 03:09:28;;;;;;;22.42;18.12;;;;;;;6.88;66.07;101156.07;1704104;83;21168;-63
2021/04/24 03:11:56;;;;;;;23.45;17.90;;;;;;;6.88;65.96;101146.91;1720893;82;21151;-63
2021/04/24 03:14:24;;;;;;;25.92;17.23;;;;;;;6.88;65.89;101153.45;1722582;82;21639;-63
2021/04/24 03:16:51;;;;;;;24.50;18.37;;;;;;;6.87;66.07;101150.80;1728799;82;21155;-53
2021/04/24 03:19:19;;;;;;;32.85;19.70;;;;;;;6.84;66.18;101151.64;1718422;82;21170;-53
2021/04/24 03:21:47;;;;;;;25.43;17.87;;;;;;;6.84;66.18;101157.73;1721800;81;21161;-61
2021/04/24 03:24:15;;;;;;;21.77;17.35;;;;;;;6.83;66.12;101163.86;1759284;81;21187;-62
2021/04/24 03:26:43;;;;;;;24.52;17.55;;;;;;;6.89;65.97;101159.55;1700865;83;21274;-53
2021/04/24 03:29:11;;;;;;;22.75;17.35;;;;;;;6.90;65.93;101161.31;1719522;82;21182;-54
2021/04/24 03:31:39;;;;;;;24.60;18.50;;;;;;;6.86;65.96;101166.94;1713229;82;21155;-54
2021/04/24 03:34:07;;;;;;;28.27;18.95;;;;;;;6.87;66.03;101160.85;1709821;82;21201;-62
2021/04/24 03:36:35;;;;;;;30.20;19.50;;;;;;;6.83;66.13;101165.58;1749911;81;21189;-63
2021/04/24 03:39:04;;;;;;;27.98;20.02;;;;;;;6.90;66.04;101165.23;1719948;82;21203;-54
2021/04/24 03:41:32;;;;;;;23.95;18.05;;;;;;;6.92;65.92;101164.42;1749085;81;21741;-62
2021/04/24 03:43:59;;;;;;;24.23;19.30;;;;;;;6.06;68.34;101170.35;1697005;83;21184;-54
2021/04/24 03:46:27;;;;;;;23.55;18.10;;;;;;;5.93;68.98;101173.13;1702900;83;21185;-54
2021/04/24 03:48:55;;;;;;;23.32;18.42;;;;;;;5.91;69.31;101174.83;1729312;82;21647;-61
2021/04/24 03:51:23;;;;;;;23.15;19.12;;;;;;;5.92;69.60;101188.35;1739238;82;21155;-54
2021/04/24 03:53:51;;;;;;;25.00;20.75;;;;;;;5.96;69.70;101188.88;1735802;81;21561;-63
2021/04/24 03:56:19;;;;;;;25.57;20.70;;;;;;;6.03;69.85;101185.97;1714707;81;21129;-53
2021/04/24 03:58:47;;;;;;;31.05;24.37;;;;;;;6.12;69.91;101186.16;1690624;84;21208;-63
2021/04/24 04:01:15;;;;;;;28.02;22.20;;;;;;;6.19;70.12;101191.06;1704327;83;21183;-63
2021/04/24 04:03:43;;;;;;;28.40;22.90;;;;;;;6.23;70.19;101190.27;1719021;82;21618;-54
2021/04/24 04:06:11;;;;;;;27.13;20.82;;;;;;;6.30;70.19;101195.20;1715096;82;21621;-53
2021/04/24 04:08:41;;;;;;;27.17;21.73;;;;;;;6.36;70.25;101194.88;1739532;81;21341;-54
2021/04/24 04:11:08;;;;;;;27.67;21.15;;;;;;;6.39;70.45;101201.48;1749973;81;21122;-54
2021/04/24 04:13:36;;;;;;;25.65;20.08;;;;;;;6.50;70.46;101205.59;1726418;82;21232;-63
2021/04/24 04:16:04;;;;;;;27.10;22.62;;;;;;;6.57;70.50;101209.21;1710488;83;21569;-57
2021/04/24 04:18:36;;;;;;;28.12;21.93;;;;;;;6.66;70.52;101216.33;1713521;82;21135;-54
2021/04/24 04:21:04;;;;;;;27.87;21.85;;;;;;;6.76;70.49;101214.33;1709899;83;21198;-64
2021/04/24 04:23:33;;;;;;;29.55;23.32;;;;;;;6.84;70.61;101216.63;1734085;82;21569;-53
2021/04/24 04:26:00;;;;;;;31.68;23.60;;;;;;;6.88;70.65;101218.88;1723564;82;21196;-54
2021/04/24 04:28:28;;;;;;;27.90;21.15;;;;;;;6.91;70.84;101230.70;1733407;82;21306;-64
2021/04/24 04:30:56;;;;;;;26.60;21.93;;;;;;;6.97;71.08;101225.98;1722139;82;21574;-64
2021/04/24 04:33:24;;;;;;;28.47;20.45;;;;;;;7.14;70.86;101223.63;1735419;81;21300;-53
2021/04/24 04:35:52;;;;;;;31.10;22.48;;;;;;;7.23;70.90;101229.46;1728333;82;21189;-53
2021/04/24 04:38:20;;;;;;;25.97;19.98;;;;;;;7.33;70.63;101227.41;1715440;82;21568;-64
2021/04/24 04:40:47;;;;;;;26.20;19.85;;;;;;;7.44;70.66;101229.77;1726958;82;21146;-54
2021/04/24 04:43:15;;;;;;;28.83;22.25;;;;;;;7.53;70.59;101226.37;1717812;82;21573;-54
2021/04/24 04:45:43;;;;;;;25.77;18.40;;;;;;;7.64;70.33;101224.34;1720725;82;21606;-58
2021/04/24 04:48:11;;;;;;;24.57;18.65;;;;;;;7.71;70.20;101224.88;1720366;82;21158;-64
2021/04/24 04:50:39;;;;;;;20.45;17.05;;;;;;;7.81;70.20;101224.56;1727616;82;21149;-55
2021/04/24 04:53:07;;;;;;;22.50;17.60;;;;;;;7.91;70.14;101225.12;1718573;82;21114;-55
2021/04/24 04:55:36;;;;;;;26.73;18.40;;;;;;;8.00;69.99;101229.59;1716163;82;21158;-64
2021/04/24 04:58:04;;;;;;;22.98;16.85;;;;;;;8.11;69.96;101232.38;1724620;82;21157;-54
2021/04/24 05:00:31;;;;;;;18.40;14.80;;;;;;;8.22;70.05;101231.17;1728107;82;21590;-53
2021/04/24 05:02:59;;;;;;;22.07;16.48;;;;;;;8.27;69.38;101232.11;1729463;82;21150;-63
2021/04/24 05:05:27;;;;;;;17.60;15.28;;;;;;;8.30;68.41;101237.39;1729979;82;21177;-55
2021/04/24 05:07:55;;;;;;;19.65;14.80;;;;;;;8.46;68.81;101231.41;1721522;82;21180;-55
2021/04/24 05:10:24;;;;;;;23.27;15.08;;;;;;;8.54;68.46;101226.72;1721943;82;21179;-55
2021/04/24 05:12:53;;;;;;;17.83;13.40;;;;;;;8.69;68.91;101224.66;1726875;82;21145;-55
2021/04/24 05:15:20;;;;;;;14.95;11.73;;;;;;;8.69;66.60;101222.04;1707873;82;21656;-54
2021/04/24 05:17:48;;;;;;;17.55;13.22;;;;;;;9.70;64.98;101226.25;1719251;81;21291;-54
2021/04/24 05:20:17;;;;;;;16.85;12.47;;;;;;;9.95;63.60;101224.61;1751787;81;21185;-57
2021/04/24 05:22:45;;;;;;;14.10;11.55;;;;;;;10.15;64.17;101224.23;1720198;83;21194;-54
2021/04/24 05:25:17;;;;;;;16.95;11.35;;;;;;;10.25;62.18;101224.70;1707437;83;21147;-55
2021/04/24 05:27:46;;;;;;;14.98;10.78;;;;;;;10.47;62.83;101231.34;1692585;82;21630;-54
2021/04/24 05:30:16;;;;;;;14.58;11.18;;;;;;;10.50;61.40;101227.41;1695193;84;21220;-54
2021/04/24 05:32:44;;;;;;;14.90;10.32;;;;;;;10.59;61.44;101226.56;1699680;83;21582;-54
2021/04/24 05:35:13;;;;;;;13.15;10.03;;;;;;;10.69;60.58;101229.20;1711044;82;21568;-64
2021/04/24 05:37:41;;;;;;;12.37;8.80;;;;;;;10.88;61.17;101232.28;1724026;82;21592;-63
2021/04/24 05:40:10;;;;;;;14.10;8.75;;;;;;;11.07;61.44;101228.74;1734017;82;21153;-63
2021/04/24 05:42:38;;;;;;;11.88;8.05;;;;;;;11.24;60.84;101236.66;1721117;82;21126;-63
2021/04/24 05:45:13;;;;;;;11.63;8.18;;;;;;;11.26;58.08;101234.00;1703253;83;21312;-63
2021/04/24 05:47:44;;;;;;;10.63;6.78;;;;;;;11.35;59.00;101238.38;1719003;82;21225;-54
2021/04/24 05:50:13;;;;;;;12.18;7.35;;;;;;;11.48;58.67;101236.16;1723567;82;21311;-64
2021/04/24 05:52:41;;;;;;;9.53;6.92;;;;;;;11.67;57.63;101234.80;1719491;82;21126;-65
2021/04/24 05:55:11;;;;;;;9.60;6.72;;;;;;;11.84;57.71;101236.92;1713472;82;21158;-64
2021/04/24 05:57:39;;;;;;;9.28;5.95;;;;;;;11.99;57.54;101236.02;1731826;82;21166;-65
2021/04/24 06:00:16;;;;;;;8.10;6.08;;;;;;;12.13;56.42;101237.72;1722257;82;21477;-65
2021/04/24 06:02:44;;;;;;;8.70;5.80;;;;;;;12.22;56.99;101233.72;1727200;82;21232;-55
2021/04/24 06:05:13;;;;;;;11.08;6.22;;;;;;;12.25;55.39;101234.13;1678857;84;21189;-55
2021/04/24 06:07:41;;;;;;;11.10;5.87;;;;;;;12.40;55.46;101247.67;1726854;82;21615;-65
2021/04/24 06:10:14;;;;;;;;;;;;;;;12.53;54.32;101244.08;1748981;81;21182;-64
2021/04/24 06:12:43;;;;;;;;;;;;;;;12.68;54.67;101236.49;1735486;81;20407;-65
2021/04/24 06:15:12;;;;;;;7.17;4.83;;;;;;;12.72;51.86;101242.65;1705058;83;20460;-54
2021/04/24 06:17:41;;;;;;;8.05;5.42;;;;;;;12.79;53.31;101240.40;1732726;83;21283;-54
2021/04/24 06:20:11;;;;;;;8.70;4.60;;;;;;;12.85;51.48;101239.46;1730406;83;21145;-66
2021/04/24 06:22:39;;;;;;;7.83;5.10;;;;;;;13.00;52.67;101241.09;1731786;81;21153;-55
2021/04/24 06:25:13;;;;;;;7.80;5.40;;;;;;;13.13;52.44;101236.56;1744782;81;21177;-55
2021/04/24 06:27:41;;;;;;;8.53;5.45;;;;;;;13.34;52.61;101235.48;1742164;81;21171;-55
2021/04/24 06:30:11;;;;;;;7.47;4.75;;;;;;;13.35;50.95;101237.23;1744841;81;21190;-54
2021/04/24 06:32:39;;;;;;;6.30;4.47;;;;;;;13.49;51.45;101234.05;1763355;81;21180;-55
2021/04/24 06:35:09;;;;;;;11.95;6.47;;;;;;;13.59;50.56;101232.63;1763198;81;21737;-66
2021/04/24 06:37:37;;;;;;;8.50;4.90;;;;;;;13.60;50.22;101229.95;1756663;81;21696;-66
2021/04/24 06:40:08;;;;;;;7.35;5.08;;;;;;;13.57;49.41;101234.41;1738663;81;21147;-55
2021/04/24 06:42:35;;;;;;;10.38;4.95;;;;;;;13.59;48.20;101235.28;1753213;81;21700;-55
2021/04/24 06:45:06;;;;;;;9.78;4.85;;;;;;;13.71;48.55;101231.14;1751345;81;21355;-55
2021/04/24 06:47:33;;;;;;;8.08;4.50;;;;;;;13.77;48.71;101236.37;1728067;81;21193;-55
2021/04/24 06:50:02;;;;;;;8.10;4.92;;;;;;;13.83;48.68;101239.41;1738730;81;21587;-56
2021/04/24 06:52:30;;;;;;;7.85;4.83;;;;;;;13.95;48.94;101239.70;1737310;81;21605;-55
2021/04/24 06:54:59;;;;;;;7.92;4.92;;;;;;;14.05;49.05;101245.73;1736736;81;21111;-66
2021/04/24 06:57:27;;;;;;;7.58;4.72;;;;;;;14.20;48.24;101253.49;1730557;82;21191;-55
2021/04/24 06:59:55;;;;;;;6.70;5.00;;;;;;;14.21;47.07;101259.21;1711872;82;21192;-66
2021/04/24 07:02:23;;;;;;;10.28;5.78;;;;;;;14.20;47.58;101253.49;1712102;81;21312;-54
2021/04/24 07:04:51;;;;;;;6.55;4.80;;;;;;;14.48;48.71;101256.20;1734264;81;21164;-67
2021/04/24 07:07:18;;;;;;;8.78;4.92;;;;;;;14.66;46.70;101254.59;1750428;81;21154;-67
2021/04/24 07:09:47;;;;;;;7.58;5.25;;;;;;;14.58;45.53;101258.69;1726706;81;21166;-55
2021/04/24 07:12:15;;;;;;;7.97;5.15;;;;;;;14.72;46.45;101256.31;1716862;83;21179;-55
2021/04/24 07:14:43;;;;;;;8.58;5.67;;;;;;;14.81;47.13;101252.17;1749467;81;21593;-67
2021/04/24 07:17:11;;;;;;;8.60;4.80;;;;;;;14.97;45.96;101255.48;1740771;81;21277;-66
2021/04/24 07:19:40;;;;;;;8.03;5.30;;;;;;;14.97;45.66;101255.48;1717146;82;21573;-67
2021/04/24 07:22:07;;;;;;;9.58;5.37;;;;;;;15.06;45.77;101258.84;1747224;81;21555;-54
2021/04/24 07:24:35;;;;;;;6.53;4.92;;;;;;;15.02;45.64;101263.34;1758245;81;21363;-66
2021/04/24 07:27:04;;;;;;;6.10;4.42;;;;;;;15.15;45.75;101257.37;1721130;82;21358;-66
2021/04/24 07:29:34;;;;;;;5.92;4.35;;;;;;;15.14;43.88;101256.95;1750214;81;21174;-66
2021/04/24 07:32:03;;;;;;;7.87;4.83;;;;;;;15.35;44.46;101257.02;1743051;81;21143;-66
2021/04/24 07:34:32;;;;;;;8.25;5.33;;;;;;;15.60;43.56;101250.80;1730560;81;21609;-54
2021/04/24 07:37:02;;;;;;;6.30;5.10;;;;;;;15.61;42.29;101253.02;1722356;81;21155;-66
2021/04/24 07:39:30;;;;;;;9.85;5.90;;;;;;;15.80;43.80;101248.66;1761177;81;21196;-66
2021/04/24 07:41:58;;;;;;;7.65;5.03;;;;;;;15.90;44.22;101251.11;1744562;81;21668;-66
2021/04/24 07:44:26;;;;;;;6.95;4.72;;;;;;;15.81;43.18;101247.75;1737743;81;21197;-54
2021/04/24 07:46:54;;;;;;;7.75;4.67;;;;;;;15.96;42.90;101242.60;1744733;81;21186;-54
2021/04/24 07:49:22;;;;;;;6.25;4.37;;;;;;;16.23;42.47;101234.50;1745599;81;21138;-54
2021/04/24 07:51:50;;;;;;;7.40;4.40;;;;;;;16.48;40.71;101241.45;1744570;81;21443;-54
2021/04/24 07:54:18;;;;;;;9.95;5.15;;;;;;;16.54;40.18;101241.79;1762516;81;21154;-55
2021/04/24 07:56:46;;;;;;;7.83;4.50;;;;;;;15.91;43.01;101244.05;1749632;80;21157;-66
2021/04/24 07:59:14;;;;;;;5.90;4.42;;;;;;;15.90;43.02;101251.58;1736403;81;21601;-54
2021/04/24 08:01:42;;;;;;;6.53;5.37;;;;;;;15.96;43.14;101243.49;1714050;83;21312;-54
2021/04/24 08:04:10;;;;;;;7.80;5.12;;;;;;;15.99;42.39;101239.89;1720352;82;21187;-54
2021/04/24 08:06:38;;;;;;;8.25;4.90;;;;;;;16.17;43.86;101244.81;1738658;81;21150;-66
2021/04/24 08:09:06;;;;;;;7.40;4.37;;;;;;;16.03;41.83;101242.91;1718912;83;21198;-54
2021/04/24 08:11:34;;;;;;;7.70;5.33;;;;;;;16.03;43.84;101245.12;1707453;83;21622;-54
2021/04/24 08:14:03;;;;;;;11.83;5.42;;;;;;;15.94;42.37;101248.39;1727878;81;21282;-66
2021/04/24 08:16:31;;;;;;;8.30;5.80;;;;;;;15.90;42.45;101246.27;1714313;81;21562;-66
2021/04/24 08:18:59;;;;;;;5.83;4.15;;;;;;;15.96;44.07;101245.26;1676737;84;21581;-55
2021/04/24 08:21:28;;;;;;;8.75;5.72;;;;;;;15.97;42.64;101237.72;1674705;84;21182;-54
2021/04/24 08:24:00;;;;;;;10.40;5.50;;;;;;;16.01;43.10;101243.38;1693369;82;21205;-54
2021/04/24 08:26:30;;;;;;;7.87;5.75;;;;;;;16.01;43.33;101246.05;1737664;81;21122;-55
2021/04/24 08:28:58;;;;;;;8.98;5.78;;;;;;;16.22;44.59;101242.52;1739797;81;21147;-66
2021/04/24 08:31:25;;;;;;;8.03;5.10;;;;;;;16.83;42.21;101240.20;1760460;81;21209;-65
2021/04/24 08:33:55;;;;;;;7.50;5.05;;;;;;;17.86;40.81;101242.38;1707904;83;21199;-55
2021/04/24 08:36:24;;;;;;;9.73;5.50;;;;;;;18.10;39.74;101239.48;1741233;81;21134;-54
2021/04/24 08:38:53;;;;;;;9.93;6.30;;;;;;;18.27;38.66;101236.77;1731687;83;21165;-66
2021/04/24 08:41:21;;;;;;;11.18;5.90;;;;;;;18.32;39.70;101232.62;1718696;81;21197;-55
2021/04/24 08:43:48;;;;;;;9.75;5.40;;;;;;;18.31;39.78;101236.20;1729288;81;21149;-55
2021/04/24 08:46:18;;;;;;;7.53;4.87;;;;;;;18.42;39.76;101230.09;1731280;83;21165;-66
2021/04/24 08:48:46;;;;;;;8.58;4.30;;;;;;;18.47;39.48;101226.81;1705404;83;21176;-54
2021/04/24 08:51:14;;;;;;;5.47;3.87;;;;;;;18.62;39.15;101224.11;1728438;81;21189;-65
2021/04/24 08:53:42;;;;;;;9.48;4.60;;;;;;;18.72;37.29;101223.34;1722905;81;21177;-54
2021/04/24 08:56:09;;;;;;;6.37;4.20;;;;;;;18.67;37.26;101224.84;1713122;83;21550;-54
2021/04/24 08:58:38;;;;;;;5.65;3.95;;;;;;;18.26;37.65;101227.89;1711295;83;21190;-54
2021/04/24 09:01:08;;;;;;;7.25;4.20;;;;;;;17.36;39.31;101240.22;1717975;83;21224;-65
2021/04/24 09:03:36;;;;;;;6.85;5.15;;;;;;;17.61;37.99;101224.89;1693858;83;21195;-55
2021/04/24 09:06:04;;;;;;;6.92;4.55;;;;;;;17.97;39.21;101225.62;1759052;81;21622;-54
2021/04/24 09:08:32;;;;;;;6.80;5.15;;;;;;;17.92;38.03;101215.56;1748845;81;21154;-54
2021/04/24 09:11:03;;;;;;;6.47;4.20;;;;;;;18.04;37.08;101225.48;1717553;81;21612;-66
2021/04/24 09:13:31;;;;;;;9.15;4.83;;;;;;;18.10;37.36;101223.97;1712351;82;21143;-54
2021/04/24 09:15:59;;;;;;;6.65;4.47;;;;;;;17.24;38.22;101228.09;1746434;81;21338;-54
2021/04/24 09:18:28;;;;;;;5.97;3.65;;;;;;;17.07;38.41;101232.09;1730960;82;21197;-65
2021/04/24 09:21:03;;;;;;;6.03;4.37;;;;;;;16.99;38.78;101231.89;1729743;82;21194;-54
2021/04/24 09:23:33;;;;;;;6.97;4.83;;;;;;;17.88;36.98;101212.58;1690678;83;21216;-54
2021/04/24 09:26:10;;;;;;;5.87;3.60;;;;;;;17.97;35.88;101227.41;1715116;81;21162;-54
2021/04/24 09:28:45;;;;;;;7.55;4.30;;;;;;;18.27;36.48;101226.11;1725921;82;21189;-66
2021/04/24 09:31:22;;;;;;;8.45;4.05;;;;;;;18.52;37.03;101225.33;1734514;81;21379;-54
2021/04/24 09:33:56;;;;;;;7.87;4.55;;;;;;;18.40;35.64;101221.27;1744116;81;21138;-54
2021/04/24 09:36:37;;;;;;;7.60;5.03;;;;;;;18.35;35.89;101217.39;1754622;81;21178;-66
2021/04/24 09:39:09;;;;;;;7.05;4.50;;;;;;;18.33;37.21;101215.70;1762172;81;21186;-54
2021/04/24 09:41:43;;;;;;;9.10;5.15;;;;;;;18.24;36.76;101215.07;1740654;81;21311;-67
2021/04/24 09:46:54;;;;;;;6.72;4.90;;;;;;;18.66;36.61;101204.43;1819972;77;22189;-64
2021/04/24 09:49:31;;;;;;;6.75;4.08;;;;;;;18.61;35.74;101202.81;1793002;80;21207;-65
2021/04/24 09:52:08;;;;;;;7.67;5.10;;;;;;;18.41;34.82;101217.20;1750714;80;21131;-65
2021/04/24 09:54:42;;;;;;;8.98;4.78;;;;;;;18.30;35.99;101211.80;1760619;80;21141;-54
2021/04/24 09:57:22;;;;;;;7.78;4.35;;;;;;;18.15;36.94;101211.83;1761833;81;21121;-67
2021/04/24 09:59:58;;;;;;;6.47;4.28;;;;;;;18.09;36.94;101208.91;1759924;81;21170;-55
2021/04/24 10:02:38;;;;;;;7.62;5.00;;;;;;;17.72;36.87;101218.81;1754902;81;21127;-65
2021/04/24 10:05:18;;;;;;;9.10;4.87;;;;;;;17.58;37.02;101222.31;1756651;81;21173;-66
2021/04/24 10:07:52;;;;;;;7.47;4.57;;;;;;;17.38;37.69;101225.95;1761428;81;21171;-66
2021/04/24 10:10:35;;;;;;;4.90;3.50;;;;;;;17.14;38.06;101223.48;1745091;81;21376;-66
2021/04/24 11:43:10;;;;;;;7.85;5.20;;;;;;;17.92;37.25;101186.27;1810542;78;28261;-66
2021/04/24 11:46:02;;;;;;;12.37;5.62;;;;;;;17.98;36.56;101187.87;1759863;81;21138;-65
2021/04/24 11:48:48;;;;;;;;;;;;;;;17.74;37.09;101189.03;1739252;83;21604;-65
2021/04/24 11:51:54;;;;;;;7.12;5.20;;;;;;;17.40;37.08;101192.66;1736763;82;20189;-54
2021/04/24 11:54:39;;;;;;;6.67;4.78;;;;;;;17.11;37.97;101190.80;1737500;82;21581;-53
2021/04/24 11:57:10;;;;;;;10.05;4.85;;;;;;;16.83;38.03;101194.12;1738216;82;21284;-53
2021/04/24 11:59:40;;;;;;;8.48;4.67;;;;;;;16.71;39.07;101192.20;1737216;81;21142;-66
2021/04/24 12:02:27;;;;;;;12.47;5.28;;;;;;;16.60;39.71;101203.55;1738357;82;21316;-66
2021/04/24 12:05:05;;;;;;;8.83;4.20;;;;;;;16.50;40.10;101198.92;1738445;82;21505;-67
2021/04/24 12:07:43;;;;;;;9.23;5.22;;;;;;;16.27;41.26;101192.35;1737651;82;21575;-67
2021/04/24 12:10:12;;;;;;;8.60;5.70;;;;;;;16.23;41.69;101189.34;1737951;82;21151;-67
2021/04/24 12:12:47;;;;;;;10.08;5.62;;;;;;;16.24;41.62;101184.45;1738062;82;21133;-67
2021/04/24 12:15:26;;;;;;;6.62;4.58;;;;;;;16.46;42.79;101177.32;1853112;77;22148;-66
2021/04/24 12:18:02;;;;;;;9.63;5.42;;;;;;;16.65;41.15;101166.64;1800508;78;21533;-54
2021/04/24 12:20:43;;;;;;;9.95;5.67;;;;;;;16.92;40.48;101171.29;1791337;80;21122;-54
2021/04/24 12:23:14;;;;;;;11.18;8.85;;;;;;;16.94;40.28;101164.14;1793461;80;21569;-67
2021/04/24 12:25:46;;;;;;;17.45;11.88;;;;;;;16.98;40.80;101162.33;1792700;79;21260;-67
2021/04/24 12:28:14;;;;;;;22.70;14.98;;;;;;;16.99;39.40;101156.09;1714023;82;21198;-67
2021/04/24 12:30:44;;;;;;;14.23;8.65;;;;;;;16.95;39.21;101161.91;1725535;83;21146;-65
2021/04/24 12:33:18;;;;;;;11.22;6.58;;;;;;;16.78;38.61;101162.34;1758591;81;21175;-53
2021/04/24 12:36:00;;;;;;;11.15;5.20;;;;;;;16.76;39.25;101163.73;1722567;82;21144;-54
2021/04/24 12:38:30;;;;;;;9.83;5.78;;;;;;;16.71;39.40;101164.73;1748974;82;21159;-54
2021/04/24 12:41:03;;;;;;;6.60;5.22;;;;;;;16.59;38.92;101164.12;1703023;84;21195;-54
2021/04/24 12:43:37;;;;;;;6.28;4.60;;;;;;;16.50;39.67;101171.02;1702938;84;21547;-67
2021/04/24 12:46:07;;;;;;;18.23;13.20;;;;;;;15.67;40.62;101170.64;1750212;81;21178;-67
2021/04/24 12:48:44;;;;;;;29.05;25.95;;;;;;;15.21;41.71;101175.06;1751183;82;21186;-67
2021/04/24 12:51:21;;;;;;;13.13;10.63;;;;;;;15.00;40.97;101168.38;1731933;83;21190;-65
2021/04/24 12:53:51;;;;;;;7.35;5.80;;;;;;;14.98;41.27;101164.45;1726373;82;21150;-67
2021/04/24 12:56:25;;;;;;;8.28;6.40;;;;;;;14.95;41.98;101163.61;1715987;83;21182;-54
2021/04/24 12:58:56;;;;;;;8.90;5.90;;;;;;;14.80;40.95;101165.63;1722948;83;21150;-54
2021/04/24 13:01:26;;;;;;;8.05;4.42;;;;;;;14.75;41.18;101163.97;1703125;83;21182;-55
2021/04/24 13:03:58;;;;;;;8.03;4.10;;;;;;;15.50;39.56;101155.04;1723659;82;21190;-68
2021/04/24 13:06:30;;;;;;;6.50;4.67;;;;;;;15.58;38.43;101157.09;1717708;83;21641;-67